createdAt,value
2022-11-30T00:01:21.180Z,2.80
2022-11-30T00:03:48.751Z,2.80
2022-11-30T00:06:22.863Z,3.00
2022-11-30T00:08:52.595Z,2.57
2022-11-30T00:11:21.263Z,3.90
2022-11-30T00:13:48.773Z,2.93
2022-11-30T00:16:15.813Z,4.33
2022-11-30T00:18:42.528Z,4.00
2022-11-30T00:21:13.206Z,3.60
2022-11-30T00:23:41.999Z,3.20
2022-11-30T00:26:11.788Z,2.67
2022-11-30T00:28:39.244Z,2.97
2022-11-30T00:31:08.839Z,2.77
2022-11-30T00:33:36.867Z,3.07
2022-11-30T00:36:10.888Z,3.20
2022-11-30T00:38:37.550Z,3.07
2022-11-30T00:41:04.216Z,3.40
2022-11-30T00:43:31.216Z,3.07
2022-11-30T00:45:58.493Z,3.53
2022-11-30T00:48:25.402Z,3.63
2022-11-30T00:50:52.748Z,3.60
2022-11-30T00:53:20.159Z,2.90
2022-11-30T00:55:47.367Z,2.30
2022-11-30T00:58:14.438Z,2.13
2022-11-30T01:00:41.660Z,2.03
2022-11-30T01:03:08.712Z,2.00
2022-11-30T01:05:35.871Z,2.00
2022-11-30T01:08:04.636Z,2.30
2022-11-30T01:10:31.591Z,2.10
2022-11-30T01:12:58.185Z,2.00
2022-11-30T01:15:24.778Z,1.57
2022-11-30T01:17:51.392Z,1.93
2022-11-30T01:20:18.191Z,1.60
2022-11-30T01:22:44.830Z,2.07
2022-11-30T01:25:11.604Z,2.30
2022-11-30T01:27:38.353Z,1.80
2022-11-30T01:30:05.674Z,2.23
2022-11-30T01:32:32.274Z,2.07
2022-11-30T01:34:58.889Z,1.90
2022-11-30T01:37:25.567Z,2.40
2022-11-30T01:39:52.137Z,2.37
2022-11-30T01:42:20.130Z,2.40
2022-11-30T01:44:53.381Z,2.20
2022-11-30T01:47:27.313Z,2.20
2022-11-30T01:50:13.166Z,2.67
2022-11-30T01:52:50.956Z,2.37
2022-11-30T01:55:24.310Z,2.77
2022-11-30T01:57:55.223Z,2.33
2022-11-30T02:00:22.063Z,2.07
2022-11-30T02:03:03.994Z,1.70
2022-11-30T02:05:33.188Z,2.07
2022-11-30T02:08:00.800Z,1.87
2022-11-30T02:10:32.235Z,1.30
2022-11-30T02:13:17.329Z,1.60
2022-11-30T02:15:58.525Z,2.03
2022-11-30T02:19:03.517Z,1.80
2022-11-30T02:21:45.337Z,1.60
2022-11-30T02:24:20.971Z,1.57
2022-11-30T02:27:13.916Z,1.83
2022-11-30T02:29:43.674Z,1.10
2022-11-30T02:32:23.234Z,1.40
2022-11-30T02:34:51.968Z,1.27
2022-11-30T02:37:20.409Z,0.90
2022-11-30T02:39:47.043Z,1.20
2022-11-30T02:42:14.395Z,1.40
2022-11-30T02:44:45.640Z,1.23
2022-11-30T02:47:20.375Z,2.50
2022-11-30T02:49:54.231Z,1.37
2022-11-30T02:52:26.040Z,1.37
2022-11-30T02:54:54.281Z,1.40
2022-11-30T02:57:20.955Z,1.40
2022-11-30T02:59:47.604Z,2.07
2022-11-30T03:02:14.157Z,1.30
2022-11-30T03:04:40.787Z,1.70
2022-11-30T03:07:07.442Z,1.70
2022-11-30T03:09:34.059Z,1.60
2022-11-30T03:12:01.191Z,1.63
2022-11-30T03:14:27.774Z,1.40
2022-11-30T03:16:54.351Z,1.93
2022-11-30T03:19:21.058Z,2.10
2022-11-30T03:21:47.666Z,1.83
2022-11-30T03:24:14.241Z,1.43
2022-11-30T03:26:40.826Z,1.87
2022-11-30T03:29:07.465Z,1.60
2022-11-30T03:31:34.179Z,1.67
2022-11-30T03:34:00.894Z,1.60
2022-11-30T03:36:27.548Z,1.70
2022-11-30T03:38:54.126Z,1.93
2022-11-30T03:41:20.695Z,1.60
2022-11-30T03:43:47.901Z,1.50
2022-11-30T03:46:15.132Z,1.60
2022-11-30T03:48:41.752Z,1.53
2022-11-30T03:51:10.397Z,1.30
2022-11-30T03:53:37.386Z,1.40
2022-11-30T03:56:07.322Z,1.03
2022-11-30T03:58:34.812Z,1.10
2022-11-30T04:01:04.275Z,1.50
2022-11-30T04:03:31.054Z,1.10
2022-11-30T04:05:58.630Z,1.30
2022-11-30T04:08:26.187Z,1.27
2022-11-30T04:10:54.315Z,1.30
2022-11-30T04:13:22.388Z,1.50
2022-11-30T04:15:50.465Z,2.30
2022-11-30T04:18:19.021Z,1.10
2022-11-30T04:20:45.911Z,1.70
2022-11-30T04:23:13.380Z,1.40
2022-11-30T04:25:41.791Z,1.70
2022-11-30T04:28:09.853Z,1.90
2022-11-30T04:30:37.930Z,1.20
2022-11-30T04:33:05.500Z,1.13
2022-11-30T04:35:33.058Z,1.20
2022-11-30T04:38:01.019Z,1.60
2022-11-30T04:40:27.648Z,1.40
2022-11-30T04:42:54.219Z,1.33
2022-11-30T04:45:20.813Z,1.00
2022-11-30T04:47:47.430Z,1.70
2022-11-30T04:50:14.070Z,1.40
2022-11-30T04:52:40.624Z,1.57
2022-11-30T04:55:07.629Z,1.20
2022-11-30T04:57:34.292Z,1.50
2022-11-30T05:00:01.932Z,1.53
2022-11-30T05:02:30.500Z,1.53
2022-11-30T05:04:57.063Z,1.50
2022-11-30T05:07:23.735Z,1.63
2022-11-30T05:09:50.527Z,1.73
2022-11-30T05:12:17.180Z,1.50
2022-11-30T05:14:43.880Z,1.77
2022-11-30T05:17:10.499Z,2.00
2022-11-30T05:19:37.083Z,3.00
2022-11-30T05:22:03.773Z,3.00
2022-11-30T05:24:30.370Z,2.93
2022-11-30T05:26:57.067Z,3.73
2022-11-30T05:29:23.663Z,2.00
2022-11-30T05:31:50.575Z,2.70
2022-11-30T05:34:17.352Z,1.80
2022-11-30T05:36:44.011Z,2.10
2022-11-30T05:39:10.665Z,2.20
2022-11-30T05:41:37.779Z,1.67
2022-11-30T05:44:05.322Z,2.30
2022-11-30T05:46:32.039Z,1.83
2022-11-30T05:48:58.701Z,2.17
2022-11-30T05:51:25.415Z,3.17
2022-11-30T05:53:52.050Z,2.87
2022-11-30T05:56:20.941Z,3.40
2022-11-30T05:58:48.180Z,1.90
2022-11-30T06:01:22.952Z,2.00
2022-11-30T06:03:49.689Z,1.93
2022-11-30T06:06:16.880Z,1.90
2022-11-30T06:08:44.275Z,3.10
2022-11-30T06:11:11.182Z,2.10
2022-11-30T06:13:39.572Z,2.33
2022-11-30T06:16:07.323Z,2.50
2022-11-30T06:18:34.672Z,2.60
2022-11-30T06:21:03.619Z,2.60
2022-11-30T06:23:30.785Z,2.77
2022-11-30T06:25:57.517Z,1.90
2022-11-30T06:28:25.044Z,2.00
2022-11-30T06:30:51.685Z,2.23
2022-11-30T06:33:22.805Z,1.80
2022-11-30T06:35:49.528Z,1.80
2022-11-30T06:38:16.154Z,1.93
2022-11-30T06:40:42.726Z,2.30
2022-11-30T06:43:09.342Z,2.10
2022-11-30T06:45:36.053Z,2.27
2022-11-30T06:48:02.749Z,2.77
2022-11-30T06:50:29.401Z,3.10
2022-11-30T06:52:56.772Z,1.70
2022-11-30T06:55:24.091Z,2.30
2022-11-30T06:57:50.896Z,2.47
2022-11-30T07:00:18.069Z,2.70
2022-11-30T07:02:44.834Z,2.37
2022-11-30T07:05:11.753Z,2.27
2022-11-30T07:07:39.067Z,2.27
2022-11-30T07:10:06.349Z,1.83
2022-11-30T07:12:35.044Z,1.40
2022-11-30T07:15:01.725Z,2.20
2022-11-30T07:17:28.334Z,1.63
2022-11-30T07:19:54.951Z,1.90
2022-11-30T07:22:21.510Z,2.10
2022-11-30T07:25:06.712Z,2.37
2022-11-30T07:27:33.284Z,1.93
2022-11-30T07:29:59.973Z,2.03
2022-11-30T07:32:26.606Z,1.93
2022-11-30T07:34:53.207Z,2.10
2022-11-30T07:37:19.878Z,1.70
2022-11-30T07:39:46.443Z,1.50
2022-11-30T07:42:13.062Z,1.60
2022-11-30T07:44:39.734Z,2.17
2022-11-30T07:47:06.275Z,2.27
2022-11-30T07:49:32.926Z,2.00
2022-11-30T07:51:59.514Z,2.50
2022-11-30T07:54:26.183Z,1.80
2022-11-30T07:56:52.877Z,3.20
2022-11-30T07:59:19.534Z,3.80
2022-11-30T08:01:46.345Z,2.60
2022-11-30T08:04:14.244Z,3.00
2022-11-30T08:06:41.211Z,1.40
2022-11-30T08:09:07.862Z,1.50
2022-11-30T08:11:36.078Z,2.00
2022-11-30T08:14:03.907Z,1.77
2022-11-30T08:16:34.375Z,1.83
2022-11-30T08:19:00.992Z,2.20
2022-11-30T08:21:27.552Z,5.23
2022-11-30T08:23:56.948Z,1.70
2022-11-30T08:26:32.953Z,1.23
2022-11-30T08:29:01.064Z,1.30
2022-11-30T08:31:33.420Z,1.60
2022-11-30T08:34:04.985Z,1.50
2022-11-30T08:36:31.996Z,1.80
2022-11-30T08:39:00.217Z,1.40
2022-11-30T08:41:27.428Z,1.27
2022-11-30T08:43:54.441Z,1.50
2022-11-30T08:49:25.476Z,1.43
2022-11-30T08:54:46.791Z,1.50
2022-11-30T08:57:18.613Z,1.70
2022-11-30T08:59:45.470Z,1.73
2022-11-30T09:02:16.944Z,1.57
2022-11-30T09:04:43.686Z,1.60
2022-11-30T09:07:10.365Z,1.83
2022-11-30T09:09:37.582Z,1.50
2022-11-30T09:12:04.383Z,1.37
2022-11-30T09:14:31.320Z,2.07
2022-11-30T09:16:57.908Z,1.63
2022-11-30T09:19:25.491Z,1.73
2022-11-30T09:21:52.710Z,1.50
2022-11-30T09:24:20.998Z,1.97
2022-11-30T09:26:47.742Z,1.40
2022-11-30T09:29:14.482Z,2.53
2022-11-30T09:31:41.148Z,2.70
2022-11-30T09:34:10.018Z,1.57
2022-11-30T09:36:36.712Z,2.13
2022-11-30T09:39:06.455Z,2.13
2022-11-30T09:41:53.318Z,1.70
2022-11-30T09:45:00.212Z,2.20
2022-11-30T09:47:58.432Z,1.77
2022-11-30T09:50:30.030Z,1.80
2022-11-30T09:53:12.235Z,2.73
2022-11-30T09:55:43.977Z,4.67
2022-11-30T09:58:44.931Z,2.77
2022-11-30T10:01:17.885Z,2.57
2022-11-30T10:03:44.801Z,3.10
2022-11-30T10:06:28.506Z,2.57
2022-11-30T10:09:26.331Z,3.20
2022-11-30T10:12:15.958Z,2.93
2022-11-30T10:14:53.897Z,2.43
2022-11-30T10:18:10.420Z,2.30
2022-11-30T10:20:52.102Z,1.67
2022-11-30T10:23:18.685Z,2.97
2022-11-30T10:26:17.847Z,3.43
2022-11-30T10:28:52.459Z,3.33
2022-11-30T10:31:32.940Z,2.80
2022-11-30T10:34:15.490Z,3.60
2022-11-30T10:36:44.630Z,2.93
2022-11-30T10:39:22.801Z,2.60
2022-11-30T10:42:00.307Z,2.20
2022-11-30T10:44:33.815Z,1.90
2022-11-30T10:47:11.745Z,2.90
2022-11-30T10:49:43.120Z,4.20
2022-11-30T10:52:09.886Z,3.70
2022-11-30T10:54:37.166Z,4.10
2022-11-30T10:57:06.615Z,4.40
2022-11-30T10:59:44.687Z,4.83
2022-11-30T11:02:48.169Z,3.73
2022-11-30T11:05:26.805Z,3.23
2022-11-30T11:08:03.002Z,2.10
2022-11-30T11:10:49.724Z,2.37
2022-11-30T11:13:38.478Z,2.13
2022-11-30T11:16:08.751Z,2.57
2022-11-30T11:18:36.803Z,2.67
2022-11-30T11:21:07.905Z,2.10
2022-11-30T11:23:40.562Z,2.93
2022-11-30T11:26:22.922Z,2.27
2022-11-30T11:28:53.214Z,2.93
2022-11-30T11:31:44.143Z,2.53
2022-11-30T11:34:50.897Z,2.83
2022-11-30T11:37:29.028Z,2.77
2022-11-30T11:40:05.918Z,2.27
2022-11-30T11:42:45.427Z,3.23
2022-11-30T11:45:22.011Z,3.03
2022-11-30T11:48:05.218Z,1.90
2022-11-30T11:51:05.596Z,2.13
2022-11-30T11:53:25.529Z,2.00
2022-11-30T11:55:57.412Z,2.40
2022-11-30T11:58:47.688Z,1.70
2022-11-30T12:01:39.885Z,2.10
2022-11-30T12:04:18.572Z,1.53
2022-11-30T12:06:46.613Z,1.80
2022-11-30T12:09:22.469Z,1.87
2022-11-30T12:11:49.825Z,2.00
2022-11-30T12:14:19.104Z,2.53
2022-11-30T12:17:08.503Z,1.83
2022-11-30T12:19:45.487Z,1.80
2022-11-30T12:22:38.935Z,2.00
2022-11-30T12:25:36.026Z,2.57
2022-11-30T12:28:33.646Z,1.70
2022-11-30T12:31:18.099Z,1.70
2022-11-30T12:33:53.867Z,1.70
2022-11-30T12:36:25.185Z,3.07
2022-11-30T12:38:58.883Z,3.60
2022-11-30T12:41:42.078Z,3.20
2022-11-30T12:44:28.643Z,2.90
2022-11-30T12:47:26.610Z,2.57
2022-11-30T12:50:21.428Z,2.10
2022-11-30T12:53:12.712Z,2.63
2022-11-30T12:55:39.320Z,2.37
2022-11-30T12:58:33.841Z,2.67
2022-11-30T13:01:44.269Z,2.53
2022-11-30T13:04:13.908Z,1.93
2022-11-30T13:06:45.890Z,2.00
2022-11-30T13:09:28.256Z,2.37
2022-11-30T13:12:02.001Z,2.33
2022-11-30T13:14:31.039Z,2.63
2022-11-30T13:17:06.819Z,2.63
2022-11-30T13:19:49.970Z,2.43
2022-11-30T13:22:43.845Z,3.00
2022-11-30T13:25:59.810Z,2.57
2022-11-30T13:28:33.564Z,2.43
2022-11-30T13:31:04.566Z,2.40
2022-11-30T13:33:33.896Z,2.17
2022-11-30T13:36:05.592Z,1.70
2022-11-30T13:38:37.826Z,1.93
2022-11-30T13:41:07.635Z,3.43
2022-11-30T13:43:44.277Z,3.93
2022-11-30T13:46:12.019Z,3.73
2022-11-30T13:48:41.749Z,4.10
2022-11-30T13:51:08.980Z,3.63
2022-11-30T13:53:38.783Z,3.70
2022-11-30T13:56:21.666Z,3.40
2022-11-30T13:59:33.138Z,2.40
2022-11-30T14:02:44.346Z,2.33
2022-11-30T14:05:13.710Z,2.37
2022-11-30T14:07:40.388Z,2.03
2022-11-30T14:10:32.946Z,2.73
2022-11-30T14:13:03.782Z,2.20
2022-11-30T14:15:36.118Z,2.43
2022-11-30T14:18:07.874Z,2.17
2022-11-30T14:20:42.880Z,1.80
2022-11-30T14:23:17.425Z,1.90
2022-11-30T14:25:52.687Z,1.93
2022-11-30T14:28:24.162Z,3.83
2022-11-30T14:30:51.632Z,2.63
2022-11-30T14:34:00.591Z,2.77
2022-11-30T14:36:35.386Z,3.50
2022-11-30T14:39:02.212Z,3.53
2022-11-30T14:41:31.021Z,3.80
2022-11-30T14:44:15.706Z,3.63
2022-11-30T14:46:42.436Z,3.37
2022-11-30T14:49:16.857Z,3.03
2022-11-30T14:51:58.969Z,2.73
2022-11-30T14:54:43.849Z,2.20
2022-11-30T14:57:22.682Z,2.57
2022-11-30T14:59:53.288Z,2.30
2022-11-30T15:02:31.599Z,2.17
2022-11-30T15:04:59.487Z,1.90
2022-11-30T15:07:27.680Z,2.47
2022-11-30T15:10:03.768Z,2.17
2022-11-30T15:12:31.372Z,1.40
2022-11-30T15:15:19.456Z,3.73
2022-11-30T15:17:53.502Z,1.70
2022-11-30T15:20:27.154Z,1.70
2022-11-30T15:22:56.979Z,2.43
2022-11-30T15:25:28.891Z,2.10
2022-11-30T15:27:55.998Z,2.30
2022-11-30T15:30:22.771Z,2.90
2022-11-30T15:32:52.432Z,2.47
2022-11-30T15:35:21.967Z,5.27
2022-11-30T15:37:49.101Z,3.20
2022-11-30T15:40:23.189Z,2.20
2022-11-30T15:42:50.669Z,2.50
2022-11-30T15:45:21.010Z,3.43
2022-11-30T15:47:48.412Z,3.07
2022-11-30T15:50:26.944Z,2.50
2022-11-30T15:52:57.149Z,2.50
2022-11-30T15:55:50.875Z,6.57
2022-11-30T15:58:47.604Z,5.17
2022-11-30T16:01:20.578Z,2.60
2022-11-30T16:03:56.886Z,4.27
2022-11-30T16:06:35.638Z,4.40
2022-11-30T16:09:24.412Z,12.83
2022-11-30T16:11:57.103Z,5.53
2022-11-30T16:14:23.765Z,5.57
2022-11-30T16:16:53.158Z,1.70
2022-11-30T16:19:20.637Z,2.63
2022-11-30T16:21:49.051Z,2.10
2022-11-30T16:24:16.453Z,1.67
2022-11-30T16:26:50.870Z,2.27
2022-11-30T16:29:18.211Z,2.00
2022-11-30T16:31:45.088Z,2.70
2022-11-30T16:34:11.904Z,2.60
2022-11-30T16:36:39.055Z,7.37
2022-11-30T16:39:06.618Z,13.57
2022-11-30T16:41:35.135Z,5.63
2022-11-30T16:44:02.228Z,3.37
2022-11-30T16:46:31.420Z,3.80
2022-11-30T16:48:58.211Z,2.57
2022-11-30T16:51:34.591Z,2.00
2022-11-30T16:54:01.235Z,2.30
2022-11-30T16:56:27.948Z,2.90
2022-11-30T16:58:54.732Z,2.17
2022-11-30T17:01:33.266Z,2.30
2022-11-30T17:04:26.153Z,3.13
2022-11-30T17:06:58.748Z,2.60
2022-11-30T17:09:29.895Z,2.83
2022-11-30T17:11:56.519Z,3.33
2022-11-30T17:14:23.230Z,3.40
2022-11-30T17:16:50.009Z,3.20
2022-11-30T17:19:16.746Z,2.87
2022-11-30T17:21:44.875Z,3.23
2022-11-30T17:24:12.290Z,2.53
2022-11-30T17:26:39.050Z,3.93
2022-11-30T17:29:05.832Z,3.93
2022-11-30T17:31:33.061Z,2.67
2022-11-30T17:33:59.713Z,4.30
2022-11-30T17:36:27.092Z,4.77
2022-11-30T17:38:53.805Z,5.13
2022-11-30T17:41:21.989Z,4.63
2022-11-30T17:43:49.561Z,9.87
2022-11-30T17:46:18.118Z,8.20
2022-11-30T17:48:45.927Z,6.67
2022-11-30T17:51:12.789Z,6.03
2022-11-30T17:53:41.196Z,4.67
2022-11-30T17:56:14.572Z,3.13
2022-11-30T17:58:44.183Z,5.40
2022-11-30T18:01:26.047Z,5.30
2022-11-30T18:03:54.216Z,3.33
2022-11-30T18:06:21.245Z,6.47
2022-11-30T18:08:47.893Z,5.30
2022-11-30T18:11:20.522Z,4.23
2022-11-30T18:13:48.734Z,3.33
2022-11-30T18:16:18.243Z,4.37
2022-11-30T18:18:47.992Z,3.13
2022-11-30T18:21:17.632Z,3.03
2022-11-30T18:23:44.348Z,2.60
2022-11-30T18:26:14.082Z,3.03
2022-11-30T18:28:40.768Z,2.80
2022-11-30T18:31:07.699Z,2.20
2022-11-30T18:33:35.486Z,2.27
2022-11-30T18:36:07.588Z,2.30
2022-11-30T18:38:37.954Z,3.43
2022-11-30T18:41:05.371Z,4.73
2022-11-30T18:43:33.598Z,2.83
2022-11-30T18:46:08.610Z,16.00
2022-11-30T18:48:36.180Z,6.00
2022-11-30T18:51:24.412Z,2.90
2022-11-30T18:53:59.992Z,3.40
2022-11-30T18:56:28.893Z,3.10
2022-11-30T18:59:01.003Z,3.27
2022-11-30T19:01:29.045Z,2.60
2022-11-30T19:03:58.511Z,2.20
2022-11-30T19:06:28.428Z,2.60
2022-11-30T19:08:55.737Z,1.93
2022-11-30T19:11:22.737Z,2.03
2022-11-30T19:13:54.588Z,1.70
2022-11-30T19:16:21.335Z,1.30
2022-11-30T19:18:48.821Z,1.33
2022-11-30T19:21:17.673Z,1.60
2022-11-30T19:23:45.121Z,1.40
2022-11-30T19:26:13.716Z,2.17
2022-11-30T19:28:42.354Z,2.00
2022-11-30T19:31:13.398Z,2.67
2022-11-30T19:33:41.777Z,1.90
2022-11-30T19:36:17.323Z,1.70
2022-11-30T19:38:58.201Z,1.47
2022-11-30T19:41:33.808Z,1.40
2022-11-30T19:44:04.646Z,1.77
2022-11-30T19:46:37.268Z,1.63
2022-11-30T19:49:22.609Z,1.50
2022-11-30T19:52:22.614Z,1.30
2022-11-30T19:55:11.271Z,1.43
2022-11-30T19:57:56.526Z,1.60
2022-11-30T20:00:23.319Z,1.97
2022-11-30T20:02:50.284Z,1.53
2022-11-30T20:05:18.094Z,1.40
2022-11-30T20:07:44.741Z,1.87
2022-11-30T20:10:15.363Z,1.53
2022-11-30T20:12:42.047Z,2.00
2022-11-30T20:15:14.581Z,2.80
2022-11-30T20:17:41.180Z,2.00
2022-11-30T20:20:07.960Z,2.10
2022-11-30T20:22:34.524Z,1.60
2022-11-30T20:25:01.161Z,1.93
2022-11-30T20:27:27.825Z,2.93
2022-11-30T20:29:55.640Z,5.30
2022-11-30T20:32:23.204Z,3.67
2022-11-30T20:34:50.090Z,3.97
2022-11-30T20:37:18.122Z,2.90
2022-11-30T20:39:46.194Z,4.87
2022-11-30T20:42:13.228Z,4.10
2022-11-30T20:44:39.901Z,3.17
2022-11-30T20:47:06.621Z,1.97
2022-11-30T20:49:33.212Z,1.73
2022-11-30T20:51:59.768Z,2.33
2022-11-30T20:54:29.494Z,1.90
2022-11-30T20:56:58.674Z,2.23
2022-11-30T20:59:26.802Z,1.87
2022-11-30T21:01:55.368Z,1.90
2022-11-30T21:04:24.580Z,1.60
2022-11-30T21:06:51.476Z,1.60
2022-11-30T21:09:19.764Z,1.50
2022-11-30T21:11:47.534Z,1.40
2022-11-30T21:14:14.590Z,2.30
2022-11-30T21:16:41.567Z,1.57
2022-11-30T21:19:10.688Z,1.60
2022-11-30T21:21:37.456Z,1.10
2022-11-30T21:24:07.698Z,1.40
2022-11-30T21:26:37.350Z,1.30
2022-11-30T21:29:11.451Z,1.03
2022-11-30T21:31:38.661Z,1.10
2022-11-30T21:34:05.394Z,1.37
2022-11-30T21:36:32.514Z,1.33
2022-11-30T21:39:06.689Z,1.30
2022-11-30T21:41:36.187Z,1.30
2022-11-30T21:44:03.811Z,0.80
2022-11-30T21:46:30.508Z,1.10
2022-11-30T21:48:57.220Z,1.17
2022-11-30T21:51:27.268Z,0.97
2022-11-30T21:53:57.255Z,1.30
2022-11-30T21:56:30.860Z,1.00
2022-11-30T21:58:57.753Z,0.70
2022-11-30T22:01:33.115Z,0.90
2022-11-30T22:04:02.076Z,1.27
2022-11-30T22:06:30.247Z,0.87
2022-11-30T22:09:03.100Z,1.07
2022-11-30T22:11:30.880Z,1.00
2022-11-30T22:13:57.506Z,1.00
2022-11-30T22:16:29.968Z,1.60
2022-11-30T22:19:02.380Z,0.70
2022-11-30T22:21:30.644Z,1.10
2022-11-30T22:23:59.316Z,1.07
2022-11-30T22:26:45.457Z,0.80
2022-11-30T22:29:12.058Z,0.77
2022-11-30T22:31:41.502Z,1.00
2022-11-30T22:34:08.823Z,0.77
2022-11-30T22:36:38.014Z,0.97
2022-11-30T22:39:11.115Z,0.83
2022-11-30T22:41:39.275Z,0.97
2022-11-30T22:44:06.256Z,0.80
2022-11-30T22:46:35.303Z,0.53
2022-11-30T22:49:03.886Z,0.77
2022-11-30T22:51:32.745Z,0.70
2022-11-30T22:54:00.042Z,1.00
2022-11-30T22:56:32.688Z,1.10
2022-11-30T22:59:00.933Z,0.80
2022-11-30T23:01:28.826Z,1.23
2022-11-30T23:03:56.870Z,1.00
2022-11-30T23:06:24.557Z,0.73
2022-11-30T23:08:52.505Z,0.73
2022-11-30T23:11:22.511Z,1.20
2022-11-30T23:13:49.581Z,0.80
2022-11-30T23:16:16.859Z,0.70
2022-11-30T23:18:50.806Z,0.87
2022-11-30T23:21:20.717Z,1.30
2022-11-30T23:23:47.853Z,0.90
2022-11-30T23:26:17.406Z,0.80
2022-11-30T23:28:46.430Z,0.77
2022-11-30T23:31:34.128Z,0.50
2022-11-30T23:34:04.841Z,0.50
2022-11-30T23:36:32.492Z,0.53
2022-11-30T23:39:02.431Z,0.60
2022-11-30T23:41:29.098Z,0.50
2022-11-30T23:43:56.020Z,0.60
2022-11-30T23:46:22.957Z,0.60
2022-11-30T23:48:49.776Z,0.53
2022-11-30T23:51:16.391Z,0.83
2022-11-30T23:53:43.055Z,0.73
2022-11-30T23:56:16.493Z,0.47
2022-11-30T23:58:43.183Z,0.70
